sensor_id;sensor_type;location;lat;lon;timestamp;P1;durP1;ratioP1;P2;durP2;ratioP2
73869;SDS011;64924;42.140;24.762;2023-12-14T00:02:15;111.57;;;58.63;;
73869;SDS011;64924;42.140;24.762;2023-12-14T00:04:40;100.70;;;55.50;;
73869;SDS011;64924;42.140;24.762;2023-12-14T00:07:06;104.47;;;56.08;;
73869;SDS011;64924;42.140;24.762;2023-12-14T00:09:31;108.13;;;54.75;;
73869;SDS011;64924;42.140;24.762;2023-12-14T00:11:57;102.15;;;55.33;;
73869;SDS011;64924;42.140;24.762;2023-12-14T00:14:22;97.38;;;54.25;;
73869;SDS011;64924;42.140;24.762;2023-12-14T00:16:48;104.82;;;54.47;;
73869;SDS011;64924;42.140;24.762;2023-12-14T00:19:14;99.57;;;53.85;;
73869;SDS011;64924;42.140;24.762;2023-12-14T00:21:40;99.97;;;51.28;;
73869;SDS011;64924;42.140;24.762;2023-12-14T00:24:06;100.50;;;53.33;;
73869;SDS011;64924;42.140;24.762;2023-12-14T00:26:33;104.15;;;55.50;;
73869;SDS011;64924;42.140;24.762;2023-12-14T00:28:58;105.97;;;57.40;;
73869;SDS011;64924;42.140;24.762;2023-12-14T00:31:23;114.32;;;57.97;;
73869;SDS011;64924;42.140;24.762;2023-12-14T00:33:49;98.50;;;52.05;;
73869;SDS011;64924;42.140;24.762;2023-12-14T00:36:18;92.10;;;51.35;;
73869;SDS011;64924;42.140;24.762;2023-12-14T00:38:44;91.93;;;50.75;;
73869;SDS011;64924;42.140;24.762;2023-12-14T00:41:10;97.30;;;50.70;;
73869;SDS011;64924;42.140;24.762;2023-12-14T00:43:35;99.25;;;50.20;;
73869;SDS011;64924;42.140;24.762;2023-12-14T00:46:01;102.45;;;53.20;;
73869;SDS011;64924;42.140;24.762;2023-12-14T00:48:28;92.93;;;51.33;;
73869;SDS011;64924;42.140;24.762;2023-12-14T00:50:53;90.22;;;50.80;;
73869;SDS011;64924;42.140;24.762;2023-12-14T00:53:18;91.38;;;50.35;;
73869;SDS011;64924;42.140;24.762;2023-12-14T00:55:44;100.75;;;52.78;;
73869;SDS011;64924;42.140;24.762;2023-12-14T00:58:10;92.53;;;50.20;;
73869;SDS011;64924;42.140;24.762;2023-12-14T01:00:38;99.53;;;51.42;;
73869;SDS011;64924;42.140;24.762;2023-12-14T01:03:04;94.93;;;51.65;;
73869;SDS011;64924;42.140;24.762;2023-12-14T01:05:29;96.72;;;52.10;;
73869;SDS011;64924;42.140;24.762;2023-12-14T01:07:55;100.22;;;51.90;;
73869;SDS011;64924;42.140;24.762;2023-12-14T01:10:20;92.22;;;51.50;;
73869;SDS011;64924;42.140;24.762;2023-12-14T01:12:46;98.47;;;52.65;;
73869;SDS011;64924;42.140;24.762;2023-12-14T01:15:11;105.38;;;51.75;;
73869;SDS011;64924;42.140;24.762;2023-12-14T01:17:37;103.68;;;54.33;;
73869;SDS011;64924;42.140;24.762;2023-12-14T01:20:06;100.10;;;52.97;;
73869;SDS011;64924;42.140;24.762;2023-12-14T01:22:32;100.90;;;52.70;;
73869;SDS011;64924;42.140;24.762;2023-12-14T01:24:58;95.90;;;54.05;;
73869;SDS011;64924;42.140;24.762;2023-12-14T01:27:24;98.82;;;51.70;;
73869;SDS011;64924;42.140;24.762;2023-12-14T01:29:50;99.30;;;53.55;;
73869;SDS011;64924;42.140;24.762;2023-12-14T01:32:15;100.05;;;52.83;;
73869;SDS011;64924;42.140;24.762;2023-12-14T01:34:40;104.35;;;53.72;;
73869;SDS011;64924;42.140;24.762;2023-12-14T01:37:06;94.75;;;52.60;;
73869;SDS011;64924;42.140;24.762;2023-12-14T01:39:32;96.60;;;51.92;;
73869;SDS011;64924;42.140;24.762;2023-12-14T01:41:57;108.88;;;52.90;;
73869;SDS011;64924;42.140;24.762;2023-12-14T01:44:23;107.00;;;55.30;;
73869;SDS011;64924;42.140;24.762;2023-12-14T01:46:49;104.07;;;53.90;;
73869;SDS011;64924;42.140;24.762;2023-12-14T01:49:15;111.05;;;56.17;;
73869;SDS011;64924;42.140;24.762;2023-12-14T01:51:40;109.15;;;54.92;;
73869;SDS011;64924;42.140;24.762;2023-12-14T01:54:06;111.22;;;55.95;;
73869;SDS011;64924;42.140;24.762;2023-12-14T01:56:31;111.60;;;55.38;;
73869;SDS011;64924;42.140;24.762;2023-12-14T01:58:56;107.22;;;55.70;;
73869;SDS011;64924;42.140;24.762;2023-12-14T02:01:31;105.60;;;56.72;;
73869;SDS011;64924;42.140;24.762;2023-12-14T02:04:13;113.28;;;55.88;;
73869;SDS011;64924;42.140;24.762;2023-12-14T02:06:39;115.50;;;56.63;;
73869;SDS011;64924;42.140;24.762;2023-12-14T02:09:06;109.85;;;56.95;;
73869;SDS011;64924;42.140;24.762;2023-12-14T02:11:32;110.28;;;55.08;;
73869;SDS011;64924;42.140;24.762;2023-12-14T02:13:57;100.78;;;54.72;;
73869;SDS011;64924;42.140;24.762;2023-12-14T02:16:23;99.72;;;54.72;;
73869;SDS011;64924;42.140;24.762;2023-12-14T02:18:49;93.47;;;51.17;;
73869;SDS011;64924;42.140;24.762;2023-12-14T02:21:14;102.70;;;53.25;;
73869;SDS011;64924;42.140;24.762;2023-12-14T02:23:46;98.68;;;55.47;;
73869;SDS011;64924;42.140;24.762;2023-12-14T02:26:12;88.82;;;50.40;;
73869;SDS011;64924;42.140;24.762;2023-12-14T02:28:38;98.40;;;50.97;;
73869;SDS011;64924;42.140;24.762;2023-12-14T02:31:03;89.22;;;48.33;;
73869;SDS011;64924;42.140;24.762;2023-12-14T02:33:29;82.95;;;47.63;;
73869;SDS011;64924;42.140;24.762;2023-12-14T02:35:54;89.68;;;46.72;;
73869;SDS011;64924;42.140;24.762;2023-12-14T02:38:20;84.38;;;46.17;;
73869;SDS011;64924;42.140;24.762;2023-12-14T02:40:46;79.13;;;44.72;;
73869;SDS011;64924;42.140;24.762;2023-12-14T02:43:11;92.55;;;48.28;;
73869;SDS011;64924;42.140;24.762;2023-12-14T02:45:37;83.10;;;45.38;;
73869;SDS011;64924;42.140;24.762;2023-12-14T02:48:02;76.88;;;43.03;;
73869;SDS011;64924;42.140;24.762;2023-12-14T02:50:28;73.30;;;39.50;;
73869;SDS011;64924;42.140;24.762;2023-12-14T02:52:54;71.07;;;38.85;;
73869;SDS011;64924;42.140;24.762;2023-12-14T02:55:19;73.60;;;40.40;;
73869;SDS011;64924;42.140;24.762;2023-12-14T02:57:45;75.97;;;40.45;;
73869;SDS011;64924;42.140;24.762;2023-12-14T03:00:10;74.28;;;39.55;;
73869;SDS011;64924;42.140;24.762;2023-12-14T03:02:37;66.68;;;38.03;;
73869;SDS011;64924;42.140;24.762;2023-12-14T03:05:02;63.67;;;36.20;;
73869;SDS011;64924;42.140;24.762;2023-12-14T03:07:28;59.90;;;35.67;;
73869;SDS011;64924;42.140;24.762;2023-12-14T03:09:54;62.88;;;37.42;;
73869;SDS011;64924;42.140;24.762;2023-12-14T03:12:19;67.35;;;38.13;;
73869;SDS011;64924;42.140;24.762;2023-12-14T03:14:44;68.32;;;38.33;;
73869;SDS011;64924;42.140;24.762;2023-12-14T03:17:10;66.47;;;37.38;;
73869;SDS011;64924;42.140;24.762;2023-12-14T03:19:41;66.78;;;37.03;;
73869;SDS011;64924;42.140;24.762;2023-12-14T03:22:07;63.65;;;36.08;;
73869;SDS011;64924;42.140;24.762;2023-12-14T03:24:34;66.45;;;37.00;;
73869;SDS011;64924;42.140;24.762;2023-12-14T03:27:01;70.85;;;36.58;;
73869;SDS011;64924;42.140;24.762;2023-12-14T03:29:27;66.90;;;36.40;;
73869;SDS011;64924;42.140;24.762;2023-12-14T03:31:54;68.45;;;37.33;;
73869;SDS011;64924;42.140;24.762;2023-12-14T03:34:23;60.87;;;35.03;;
73869;SDS011;64924;42.140;24.762;2023-12-14T03:36:49;65.38;;;36.13;;
73869;SDS011;64924;42.140;24.762;2023-12-14T03:39:15;69.40;;;36.35;;
73869;SDS011;64924;42.140;24.762;2023-12-14T03:41:41;66.30;;;35.67;;
73869;SDS011;64924;42.140;24.762;2023-12-14T03:44:07;59.90;;;35.08;;
73869;SDS011;64924;42.140;24.762;2023-12-14T03:46:32;67.22;;;39.35;;
73869;SDS011;64924;42.140;24.762;2023-12-14T03:48:59;66.28;;;36.75;;
73869;SDS011;64924;42.140;24.762;2023-12-14T03:51:25;72.70;;;38.85;;
73869;SDS011;64924;42.140;24.762;2023-12-14T03:53:50;67.40;;;36.80;;
73869;SDS011;64924;42.140;24.762;2023-12-14T03:56:16;69.13;;;37.38;;
73869;SDS011;64924;42.140;24.762;2023-12-14T03:58:41;63.55;;;35.80;;
73869;SDS011;64924;42.140;24.762;2023-12-14T04:01:07;66.63;;;36.38;;
73869;SDS011;64924;42.140;24.762;2023-12-14T04:03:32;67.55;;;37.05;;
73869;SDS011;64924;42.140;24.762;2023-12-14T04:05:58;70.47;;;36.35;;
73869;SDS011;64924;42.140;24.762;2023-12-14T04:08:23;65.88;;;35.75;;
73869;SDS011;64924;42.140;24.762;2023-12-14T04:10:49;65.60;;;35.83;;
73869;SDS011;64924;42.140;24.762;2023-12-14T04:13:14;65.13;;;37.08;;
73869;SDS011;64924;42.140;24.762;2023-12-14T04:15:40;64.90;;;36.03;;
73869;SDS011;64924;42.140;24.762;2023-12-14T04:18:08;65.00;;;37.75;;
73869;SDS011;64924;42.140;24.762;2023-12-14T04:20:34;66.20;;;37.50;;
73869;SDS011;64924;42.140;24.762;2023-12-14T04:22:59;66.10;;;35.33;;
73869;SDS011;64924;42.140;24.762;2023-12-14T04:25:25;69.63;;;36.47;;
73869;SDS011;64924;42.140;24.762;2023-12-14T04:27:51;60.58;;;34.58;;
73869;SDS011;64924;42.140;24.762;2023-12-14T04:30:16;63.75;;;35.22;;
73869;SDS011;64924;42.140;24.762;2023-12-14T04:32:42;66.72;;;34.45;;
73869;SDS011;64924;42.140;24.762;2023-12-14T04:35:07;62.67;;;34.38;;
73869;SDS011;64924;42.140;24.762;2023-12-14T04:37:33;52.55;;;32.10;;
73869;SDS011;64924;42.140;24.762;2023-12-14T04:39:59;60.13;;;31.10;;
73869;SDS011;64924;42.140;24.762;2023-12-14T04:42:25;56.45;;;32.55;;
73869;SDS011;64924;42.140;24.762;2023-12-14T04:44:51;56.67;;;31.48;;
73869;SDS011;64924;42.140;24.762;2023-12-14T04:47:16;53.58;;;30.20;;
73869;SDS011;64924;42.140;24.762;2023-12-14T04:49:42;51.28;;;29.92;;
73869;SDS011;64924;42.140;24.762;2023-12-14T04:52:07;57.50;;;31.45;;
73869;SDS011;64924;42.140;24.762;2023-12-14T04:54:33;60.08;;;30.35;;
73869;SDS011;64924;42.140;24.762;2023-12-14T04:57:02;52.38;;;30.95;;
73869;SDS011;64924;42.140;24.762;2023-12-14T04:59:28;54.78;;;30.33;;
73869;SDS011;64924;42.140;24.762;2023-12-14T05:01:54;62.75;;;33.25;;
73869;SDS011;64924;42.140;24.762;2023-12-14T05:04:19;58.72;;;32.85;;
73869;SDS011;64924;42.140;24.762;2023-12-14T05:06:45;59.28;;;33.13;;
73869;SDS011;64924;42.140;24.762;2023-12-14T05:09:10;52.83;;;31.85;;
73869;SDS011;64924;42.140;24.762;2023-12-14T05:11:36;56.88;;;33.00;;
73869;SDS011;64924;42.140;24.762;2023-12-14T05:14:02;57.25;;;32.63;;
73869;SDS011;64924;42.140;24.762;2023-12-14T05:16:28;62.50;;;36.65;;
73869;SDS011;64924;42.140;24.762;2023-12-14T05:18:53;62.40;;;35.40;;
73869;SDS011;64924;42.140;24.762;2023-12-14T05:21:19;52.65;;;33.47;;
73869;SDS011;64924;42.140;24.762;2023-12-14T05:23:45;63.88;;;33.83;;
73869;SDS011;64924;42.140;24.762;2023-12-14T05:26:10;61.47;;;33.45;;
73869;SDS011;64924;42.140;24.762;2023-12-14T05:28:36;62.72;;;35.30;;
73869;SDS011;64924;42.140;24.762;2023-12-14T05:31:01;58.00;;;33.97;;
73869;SDS011;64924;42.140;24.762;2023-12-14T05:33:28;74.38;;;37.50;;
73869;SDS011;64924;42.140;24.762;2023-12-14T05:35:53;67.40;;;37.67;;
73869;SDS011;64924;42.140;24.762;2023-12-14T05:38:19;60.58;;;35.22;;
73869;SDS011;64924;42.140;24.762;2023-12-14T05:40:44;62.97;;;36.78;;
73869;SDS011;64924;42.140;24.762;2023-12-14T05:43:10;66.70;;;37.80;;
73869;SDS011;64924;42.140;24.762;2023-12-14T05:45:35;65.88;;;34.88;;
73869;SDS011;64924;42.140;24.762;2023-12-14T05:48:01;68.80;;;41.25;;
73869;SDS011;64924;42.140;24.762;2023-12-14T05:50:27;69.35;;;40.13;;
73869;SDS011;64924;42.140;24.762;2023-12-14T05:52:52;71.15;;;39.50;;
73869;SDS011;64924;42.140;24.762;2023-12-14T05:55:19;69.88;;;39.67;;
73869;SDS011;64924;42.140;24.762;2023-12-14T05:57:47;66.25;;;39.90;;
73869;SDS011;64924;42.140;24.762;2023-12-14T06:00:13;72.95;;;40.63;;
73869;SDS011;64924;42.140;24.762;2023-12-14T06:02:39;73.28;;;40.75;;
73869;SDS011;64924;42.140;24.762;2023-12-14T06:05:05;76.72;;;42.50;;
73869;SDS011;64924;42.140;24.762;2023-12-14T06:07:31;70.93;;;38.83;;
73869;SDS011;64924;42.140;24.762;2023-12-14T06:09:57;66.57;;;38.95;;
73869;SDS011;64924;42.140;24.762;2023-12-14T06:12:22;62.95;;;37.70;;
73869;SDS011;64924;42.140;24.762;2023-12-14T06:14:48;65.90;;;38.05;;
73869;SDS011;64924;42.140;24.762;2023-12-14T06:17:15;74.82;;;38.08;;
73869;SDS011;64924;42.140;24.762;2023-12-14T06:19:40;77.47;;;40.03;;
73869;SDS011;64924;42.140;24.762;2023-12-14T06:22:06;69.00;;;38.53;;
73869;SDS011;64924;42.140;24.762;2023-12-14T06:24:31;65.80;;;37.35;;
73869;SDS011;64924;42.140;24.762;2023-12-14T06:26:57;68.03;;;37.08;;
73869;SDS011;64924;42.140;24.762;2023-12-14T06:29:22;71.80;;;37.85;;
73869;SDS011;64924;42.140;24.762;2023-12-14T06:31:48;70.97;;;37.60;;
73869;SDS011;64924;42.140;24.762;2023-12-14T06:34:14;68.10;;;37.75;;
73869;SDS011;64924;42.140;24.762;2023-12-14T06:36:44;79.75;;;38.10;;
73869;SDS011;64924;42.140;24.762;2023-12-14T06:39:11;63.20;;;33.78;;
73869;SDS011;64924;42.140;24.762;2023-12-14T06:41:37;70.18;;;38.92;;
73869;SDS011;64924;42.140;24.762;2023-12-14T06:44:02;101.65;;;54.08;;
73869;SDS011;64924;42.140;24.762;2023-12-14T06:46:28;73.82;;;41.25;;
73869;SDS011;64924;42.140;24.762;2023-12-14T06:48:54;62.67;;;33.97;;
73869;SDS011;64924;42.140;24.762;2023-12-14T06:51:20;59.72;;;34.13;;
73869;SDS011;64924;42.140;24.762;2023-12-14T06:53:47;69.65;;;34.05;;
73869;SDS011;64924;42.140;24.762;2023-12-14T06:56:13;56.20;;;32.80;;
73869;SDS011;64924;42.140;24.762;2023-12-14T06:58:39;59.80;;;31.52;;
73869;SDS011;64924;42.140;24.762;2023-12-14T07:01:06;57.55;;;31.38;;
73869;SDS011;64924;42.140;24.762;2023-12-14T07:03:32;62.05;;;30.73;;
73869;SDS011;64924;42.140;24.762;2023-12-14T07:05:58;59.05;;;32.80;;
73869;SDS011;64924;42.140;24.762;2023-12-14T07:08:24;53.38;;;29.77;;
73869;SDS011;64924;42.140;24.762;2023-12-14T07:10:50;57.05;;;31.60;;
73869;SDS011;64924;42.140;24.762;2023-12-14T07:13:15;55.15;;;30.05;;
73869;SDS011;64924;42.140;24.762;2023-12-14T07:15:41;51.90;;;30.05;;
73869;SDS011;64924;42.140;24.762;2023-12-14T07:18:06;53.85;;;29.70;;
73869;SDS011;64924;42.140;24.762;2023-12-14T07:20:32;45.67;;;26.98;;
73869;SDS011;64924;42.140;24.762;2023-12-14T07:22:58;48.55;;;28.55;;
73869;SDS011;64924;42.140;24.762;2023-12-14T07:25:23;52.58;;;29.15;;
73869;SDS011;64924;42.140;24.762;2023-12-14T07:27:48;58.40;;;30.58;;
73869;SDS011;64924;42.140;24.762;2023-12-14T07:30:14;59.35;;;31.17;;
73869;SDS011;64924;42.140;24.762;2023-12-14T07:32:40;54.85;;;30.65;;
73869;SDS011;64924;42.140;24.762;2023-12-14T07:35:05;51.15;;;30.08;;
73869;SDS011;64924;42.140;24.762;2023-12-14T07:37:31;49.72;;;29.40;;
73869;SDS011;64924;42.140;24.762;2023-12-14T07:39:57;54.00;;;29.67;;
73869;SDS011;64924;42.140;24.762;2023-12-14T07:42:23;54.58;;;29.15;;
73869;SDS011;64924;42.140;24.762;2023-12-14T07:44:49;52.33;;;30.20;;
73869;SDS011;64924;42.140;24.762;2023-12-14T07:47:14;59.22;;;29.50;;
73869;SDS011;64924;42.140;24.762;2023-12-14T07:49:40;52.85;;;29.63;;
73869;SDS011;64924;42.140;24.762;2023-12-14T07:52:05;56.17;;;29.10;;
73869;SDS011;64924;42.140;24.762;2023-12-14T07:54:31;49.33;;;28.65;;
73869;SDS011;64924;42.140;24.762;2023-12-14T07:56:57;56.03;;;29.20;;
73869;SDS011;64924;42.140;24.762;2023-12-14T07:59:22;56.22;;;31.40;;
73869;SDS011;64924;42.140;24.762;2023-12-14T08:01:48;57.33;;;29.05;;
73869;SDS011;64924;42.140;24.762;2023-12-14T08:04:13;62.08;;;31.05;;
73869;SDS011;64924;42.140;24.762;2023-12-14T08:06:39;55.80;;;31.35;;
73869;SDS011;64924;42.140;24.762;2023-12-14T08:09:06;62.90;;;31.92;;
73869;SDS011;64924;42.140;24.762;2023-12-14T08:11:32;51.72;;;29.42;;
73869;SDS011;64924;42.140;24.762;2023-12-14T08:13:58;57.35;;;30.60;;
73869;SDS011;64924;42.140;24.762;2023-12-14T08:16:24;50.53;;;31.35;;
73869;SDS011;64924;42.140;24.762;2023-12-14T08:18:50;44.85;;;27.00;;
73869;SDS011;64924;42.140;24.762;2023-12-14T08:21:15;51.10;;;27.45;;
73869;SDS011;64924;42.140;24.762;2023-12-14T08:23:42;44.40;;;26.02;;
73869;SDS011;64924;42.140;24.762;2023-12-14T08:26:07;40.80;;;25.67;;
73869;SDS011;64924;42.140;24.762;2023-12-14T08:28:35;41.75;;;26.05;;
73869;SDS011;64924;42.140;24.762;2023-12-14T08:31:01;46.03;;;27.10;;
73869;SDS011;64924;42.140;24.762;2023-12-14T08:33:31;52.13;;;28.85;;
73869;SDS011;64924;42.140;24.762;2023-12-14T08:35:57;51.38;;;30.17;;
73869;SDS011;64924;42.140;24.762;2023-12-14T08:38:23;47.70;;;27.55;;
73869;SDS011;64924;42.140;24.762;2023-12-14T08:40:49;44.95;;;26.65;;
73869;SDS011;64924;42.140;24.762;2023-12-14T08:43:16;45.72;;;28.38;;
73869;SDS011;64924;42.140;24.762;2023-12-14T08:45:41;44.83;;;27.40;;
73869;SDS011;64924;42.140;24.762;2023-12-14T08:48:07;46.75;;;26.50;;
73869;SDS011;64924;42.140;24.762;2023-12-14T08:50:32;48.35;;;25.83;;
73869;SDS011;64924;42.140;24.762;2023-12-14T08:52:58;45.70;;;26.63;;
73869;SDS011;64924;42.140;24.762;2023-12-14T08:55:24;46.55;;;24.58;;
73869;SDS011;64924;42.140;24.762;2023-12-14T08:57:50;38.40;;;24.40;;
73869;SDS011;64924;42.140;24.762;2023-12-14T09:00:16;39.78;;;23.30;;
73869;SDS011;64924;42.140;24.762;2023-12-14T09:02:43;44.08;;;24.33;;
73869;SDS011;64924;42.140;24.762;2023-12-14T09:05:11;36.67;;;23.60;;
73869;SDS011;64924;42.140;24.762;2023-12-14T09:10:06;43.20;;;22.88;;
73869;SDS011;64924;42.140;24.762;2023-12-14T09:12:32;33.85;;;23.45;;
73869;SDS011;64924;42.140;24.762;2023-12-14T09:14:59;41.63;;;24.30;;
73869;SDS011;64924;42.140;24.762;2023-12-14T09:17:25;42.70;;;25.65;;
73869;SDS011;64924;42.140;24.762;2023-12-14T09:19:51;40.78;;;26.98;;
73869;SDS011;64924;42.140;24.762;2023-12-14T09:22:17;45.55;;;26.45;;
73869;SDS011;64924;42.140;24.762;2023-12-14T09:24:42;44.08;;;25.98;;
73869;SDS011;64924;42.140;24.762;2023-12-14T09:27:08;53.80;;;26.67;;
73869;SDS011;64924;42.140;24.762;2023-12-14T09:29:33;48.25;;;28.73;;
73869;SDS011;64924;42.140;24.762;2023-12-14T09:31:59;42.00;;;25.77;;
73869;SDS011;64924;42.140;24.762;2023-12-14T09:34:24;47.75;;;26.60;;
73869;SDS011;64924;42.140;24.762;2023-12-14T09:36:50;43.72;;;26.42;;
73869;SDS011;64924;42.140;24.762;2023-12-14T09:39:16;46.17;;;27.23;;
73869;SDS011;64924;42.140;24.762;2023-12-14T09:41:44;53.25;;;28.40;;
73869;SDS011;64924;42.140;24.762;2023-12-14T09:44:10;39.13;;;25.15;;
73869;SDS011;64924;42.140;24.762;2023-12-14T09:46:37;43.83;;;23.48;;
73869;SDS011;64924;42.140;24.762;2023-12-14T09:49:03;42.90;;;24.80;;
73869;SDS011;64924;42.140;24.762;2023-12-14T09:51:30;44.28;;;25.30;;
73869;SDS011;64924;42.140;24.762;2023-12-14T09:53:56;47.00;;;26.85;;
73869;SDS011;64924;42.140;24.762;2023-12-14T09:56:25;47.22;;;28.48;;
73869;SDS011;64924;42.140;24.762;2023-12-14T09:58:51;44.47;;;28.02;;
73869;SDS011;64924;42.140;24.762;2023-12-14T10:01:26;46.60;;;26.13;;
73869;SDS011;64924;42.140;24.762;2023-12-14T10:06:50;45.28;;;25.83;;
73869;SDS011;64924;42.140;24.762;2023-12-14T10:09:22;46.67;;;26.58;;
73869;SDS011;64924;42.140;24.762;2023-12-14T10:11:49;47.05;;;28.92;;
73869;SDS011;64924;42.140;24.762;2023-12-14T10:14:28;51.00;;;28.73;;
73869;SDS011;64924;42.140;24.762;2023-12-14T10:16:54;47.53;;;29.15;;
73869;SDS011;64924;42.140;24.762;2023-12-14T10:19:20;40.63;;;26.90;;
73869;SDS011;64924;42.140;24.762;2023-12-14T10:21:46;48.17;;;24.88;;
73869;SDS011;64924;42.140;24.762;2023-12-14T10:24:13;40.88;;;25.00;;
73869;SDS011;64924;42.140;24.762;2023-12-14T10:26:39;49.25;;;26.33;;
73869;SDS011;64924;42.140;24.762;2023-12-14T10:29:04;38.83;;;24.15;;
73869;SDS011;64924;42.140;24.762;2023-12-14T10:31:31;42.65;;;25.75;;
73869;SDS011;64924;42.140;24.762;2023-12-14T10:33:56;46.42;;;28.13;;
73869;SDS011;64924;42.140;24.762;2023-12-14T10:36:25;51.05;;;26.85;;
73869;SDS011;64924;42.140;24.762;2023-12-14T10:38:54;49.88;;;25.85;;
73869;SDS011;64924;42.140;24.762;2023-12-14T10:41:22;45.00;;;25.52;;
73869;SDS011;64924;42.140;24.762;2023-12-14T10:43:48;42.95;;;25.95;;
73869;SDS011;64924;42.140;24.762;2023-12-14T10:46:17;43.45;;;26.48;;
73869;SDS011;64924;42.140;24.762;2023-12-14T10:48:44;43.17;;;27.13;;
73869;SDS011;64924;42.140;24.762;2023-12-14T10:51:12;45.65;;;27.67;;
73869;SDS011;64924;42.140;24.762;2023-12-14T10:53:39;54.47;;;28.02;;
73869;SDS011;64924;42.140;24.762;2023-12-14T10:56:05;49.03;;;28.67;;
73869;SDS011;64924;42.140;24.762;2023-12-14T11:01:32;46.33;;;28.35;;
73869;SDS011;64924;42.140;24.762;2023-12-14T11:03:58;48.17;;;27.80;;
73869;SDS011;64924;42.140;24.762;2023-12-14T11:08:53;47.13;;;28.15;;
73869;SDS011;64924;42.140;24.762;2023-12-14T11:11:20;47.58;;;27.73;;
73869;SDS011;64924;42.140;24.762;2023-12-14T11:13:55;45.88;;;27.52;;
73869;SDS011;64924;42.140;24.762;2023-12-14T11:16:27;49.55;;;27.67;;
73869;SDS011;64924;42.140;24.762;2023-12-14T11:21:46;41.92;;;25.15;;
73869;SDS011;64924;42.140;24.762;2023-12-14T11:24:12;48.88;;;27.05;;
73869;SDS011;64924;42.140;24.762;2023-12-14T11:26:37;48.70;;;28.60;;
73869;SDS011;64924;42.140;24.762;2023-12-14T11:29:03;46.47;;;28.25;;
73869;SDS011;64924;42.140;24.762;2023-12-14T11:31:29;43.80;;;28.33;;
73869;SDS011;64924;42.140;24.762;2023-12-14T11:33:55;43.55;;;25.75;;
73869;SDS011;64924;42.140;24.762;2023-12-14T11:36:25;40.88;;;26.45;;
73869;SDS011;64924;42.140;24.762;2023-12-14T11:38:51;42.88;;;26.23;;
73869;SDS011;64924;42.140;24.762;2023-12-14T11:41:20;41.30;;;25.17;;
73869;SDS011;64924;42.140;24.762;2023-12-14T11:43:46;46.92;;;26.70;;
73869;SDS011;64924;42.140;24.762;2023-12-14T11:46:12;50.92;;;25.63;;
73869;SDS011;64924;42.140;24.762;2023-12-14T11:48:39;41.85;;;24.90;;
73869;SDS011;64924;42.140;24.762;2023-12-14T11:51:04;42.75;;;25.45;;
73869;SDS011;64924;42.140;24.762;2023-12-14T11:53:30;43.50;;;25.70;;
73869;SDS011;64924;42.140;24.762;2023-12-14T11:55:58;42.13;;;26.00;;
73869;SDS011;64924;42.140;24.762;2023-12-14T11:58:25;40.60;;;23.38;;
73869;SDS011;64924;42.140;24.762;2023-12-14T12:00:51;41.03;;;24.35;;
73869;SDS011;64924;42.140;24.762;2023-12-14T12:03:18;40.67;;;25.15;;
73869;SDS011;64924;42.140;24.762;2023-12-14T12:05:47;38.95;;;24.13;;
73869;SDS011;64924;42.140;24.762;2023-12-14T12:08:13;45.28;;;24.08;;
73869;SDS011;64924;42.140;24.762;2023-12-14T12:10:40;35.13;;;21.77;;
73869;SDS011;64924;42.140;24.762;2023-12-14T12:13:07;39.40;;;22.98;;
73869;SDS011;64924;42.140;24.762;2023-12-14T12:15:36;38.00;;;23.02;;
73869;SDS011;64924;42.140;24.762;2023-12-14T12:18:08;35.47;;;22.05;;
73869;SDS011;64924;42.140;24.762;2023-12-14T12:20:41;39.25;;;23.58;;
73869;SDS011;64924;42.140;24.762;2023-12-14T12:23:07;41.05;;;22.75;;
73869;SDS011;64924;42.140;24.762;2023-12-14T12:25:33;40.92;;;23.10;;
73869;SDS011;64924;42.140;24.762;2023-12-14T12:28:00;39.92;;;23.20;;
73869;SDS011;64924;42.140;24.762;2023-12-14T12:30:26;44.42;;;23.88;;
73869;SDS011;64924;42.140;24.762;2023-12-14T12:32:52;42.30;;;25.35;;
73869;SDS011;64924;42.140;24.762;2023-12-14T12:35:20;41.80;;;24.83;;
73869;SDS011;64924;42.140;24.762;2023-12-14T12:37:46;42.60;;;25.65;;
73869;SDS011;64924;42.140;24.762;2023-12-14T12:40:12;44.10;;;24.67;;
73869;SDS011;64924;42.140;24.762;2023-12-14T12:42:40;49.13;;;24.60;;
73869;SDS011;64924;42.140;24.762;2023-12-14T12:45:05;45.20;;;25.17;;
73869;SDS011;64924;42.140;24.762;2023-12-14T12:47:31;43.80;;;22.75;;
73869;SDS011;64924;42.140;24.762;2023-12-14T12:49:56;41.30;;;24.25;;
73869;SDS011;64924;42.140;24.762;2023-12-14T12:52:22;46.67;;;24.08;;
73869;SDS011;64924;42.140;24.762;2023-12-14T12:54:47;48.40;;;24.95;;
73869;SDS011;64924;42.140;24.762;2023-12-14T12:57:13;42.38;;;25.05;;
73869;SDS011;64924;42.140;24.762;2023-12-14T12:59:38;49.72;;;27.67;;
73869;SDS011;64924;42.140;24.762;2023-12-14T13:02:04;54.65;;;29.27;;
73869;SDS011;64924;42.140;24.762;2023-12-14T13:04:30;48.40;;;26.77;;
73869;SDS011;64924;42.140;24.762;2023-12-14T13:06:56;45.40;;;24.42;;
73869;SDS011;64924;42.140;24.762;2023-12-14T13:09:22;40.83;;;24.70;;
73869;SDS011;64924;42.140;24.762;2023-12-14T13:11:48;36.25;;;22.60;;
73869;SDS011;64924;42.140;24.762;2023-12-14T13:14:13;38.10;;;23.17;;
73869;SDS011;64924;42.140;24.762;2023-12-14T13:16:39;44.42;;;23.52;;
73869;SDS011;64924;42.140;24.762;2023-12-14T13:19:05;41.35;;;22.63;;
73869;SDS011;64924;42.140;24.762;2023-12-14T13:21:31;39.15;;;22.70;;
73869;SDS011;64924;42.140;24.762;2023-12-14T13:24:00;40.47;;;23.42;;
73869;SDS011;64924;42.140;24.762;2023-12-14T13:26:26;36.25;;;22.48;;
73869;SDS011;64924;42.140;24.762;2023-12-14T13:28:52;37.70;;;22.83;;
73869;SDS011;64924;42.140;24.762;2023-12-14T13:31:17;38.72;;;23.00;;
73869;SDS011;64924;42.140;24.762;2023-12-14T13:33:44;41.30;;;22.95;;
73869;SDS011;64924;42.140;24.762;2023-12-14T13:36:11;41.92;;;22.23;;
73869;SDS011;64924;42.140;24.762;2023-12-14T13:38:37;40.35;;;22.55;;
73869;SDS011;64924;42.140;24.762;2023-12-14T13:41:02;38.95;;;22.35;;
73869;SDS011;64924;42.140;24.762;2023-12-14T13:43:28;42.22;;;22.95;;
73869;SDS011;64924;42.140;24.762;2023-12-14T13:45:54;45.53;;;23.67;;
73869;SDS011;64924;42.140;24.762;2023-12-14T13:48:23;40.97;;;24.13;;
73869;SDS011;64924;42.140;24.762;2023-12-14T13:50:55;41.33;;;23.02;;
73869;SDS011;64924;42.140;24.762;2023-12-14T13:53:21;43.73;;;24.87;;
73869;SDS011;64924;42.140;24.762;2023-12-14T13:55:47;46.63;;;25.27;;
73869;SDS011;64924;42.140;24.762;2023-12-14T13:58:16;40.50;;;23.10;;
73869;SDS011;64924;42.140;24.762;2023-12-14T14:00:43;50.65;;;29.30;;
73869;SDS011;64924;42.140;24.762;2023-12-14T14:03:08;52.30;;;29.45;;
73869;SDS011;64924;42.140;24.762;2023-12-14T14:05:34;42.28;;;26.73;;
73869;SDS011;64924;42.140;24.762;2023-12-14T14:08:00;45.55;;;25.83;;
73869;SDS011;64924;42.140;24.762;2023-12-14T14:10:25;51.78;;;28.08;;
73869;SDS011;64924;42.140;24.762;2023-12-14T14:12:51;52.75;;;29.08;;
73869;SDS011;64924;42.140;24.762;2023-12-14T14:15:17;47.08;;;28.55;;
73869;SDS011;64924;42.140;24.762;2023-12-14T14:17:43;51.05;;;28.02;;